createdAt,value
2019-04-11T00:00:52.469Z,76.80
2019-04-11T00:03:31.946Z,77.00
2019-04-11T00:06:12.031Z,77.20
2019-04-11T00:08:52.380Z,77.40
2019-04-11T00:11:33.530Z,77.10
2019-04-11T00:14:13.916Z,77.20
2019-04-11T00:16:53.437Z,77.10
2019-04-11T00:19:33.689Z,77.10
2019-04-11T00:22:13.253Z,77.40
2019-04-11T00:24:53.433Z,77.50
2019-04-11T00:27:35.041Z,77.60
2019-04-11T00:32:56.073Z,78.00
2019-04-11T00:35:36.816Z,77.90
2019-04-11T00:38:17.837Z,77.80
2019-04-11T00:40:59.620Z,78.30
2019-04-11T00:43:42.126Z,78.70
2019-04-11T00:46:22.372Z,78.90
2019-04-11T00:49:02.519Z,79.30
2019-04-11T00:51:42.877Z,79.60
2019-04-11T00:54:22.819Z,79.70
2019-04-11T00:57:03.034Z,79.80
2019-04-11T00:59:43.196Z,79.90
2019-04-11T01:02:25.165Z,79.60
2019-04-11T01:05:05.888Z,79.70
2019-04-11T01:07:45.554Z,79.70
2019-04-11T01:10:26.549Z,79.70
2019-04-11T01:13:07.130Z,79.80
2019-04-11T01:19:02.571Z,80.00
2019-04-11T01:21:43.017Z,80.40
2019-04-11T01:24:23.855Z,80.50
2019-04-11T01:27:03.741Z,80.50
2019-04-11T01:29:44.054Z,80.70
2019-04-11T01:32:24.458Z,80.60
2019-04-11T01:35:04.781Z,80.60
2019-04-11T01:37:46.044Z,80.70
2019-04-11T01:40:26.309Z,80.50
2019-04-11T01:43:06.439Z,80.90
2019-04-11T01:45:46.545Z,81.00
2019-04-11T01:48:31.605Z,81.00
2019-04-11T01:51:13.718Z,81.20
2019-04-11T01:53:53.651Z,81.30
2019-04-11T01:56:33.983Z,81.20
2019-04-11T01:59:15.250Z,81.50
2019-04-11T02:02:03.304Z,81.30
2019-04-11T02:07:51.070Z,81.30
2019-04-11T02:10:30.911Z,81.50
2019-04-11T02:13:11.975Z,81.50
2019-04-11T02:15:56.738Z,81.80
2019-04-11T02:18:23.548Z,81.60
2019-04-11T02:21:11.562Z,81.70
2019-04-11T02:27:21.205Z,82.20
2019-04-11T02:30:01.263Z,81.80
2019-04-11T02:35:28.794Z,81.60
2019-04-11T02:38:09.802Z,81.90
2019-04-11T02:40:50.034Z,81.80
2019-04-11T02:43:32.008Z,81.90
2019-04-11T02:46:21.997Z,82.00
2019-04-11T02:48:54.535Z,82.40
2019-04-11T02:51:36.904Z,82.20
2019-04-11T02:54:18.178Z,82.40
2019-04-11T02:57:01.659Z,82.40
2019-04-11T02:59:44.479Z,82.70
2019-04-11T03:02:24.310Z,82.60
2019-04-11T03:05:06.943Z,82.60
2019-04-11T03:07:47.705Z,82.70
2019-04-11T03:10:28.903Z,82.70
2019-04-11T03:13:10.364Z,82.80
2019-04-11T03:16:07.183Z,83.10
2019-04-11T03:18:46.092Z,82.90
2019-04-11T03:21:20.343Z,82.90
2019-04-11T03:23:58.637Z,83.20
2019-04-11T03:26:41.080Z,83.00
2019-04-11T03:29:20.996Z,83.20
2019-04-11T03:35:51.838Z,82.90
2019-04-11T03:37:49.875Z,82.90
2019-04-11T03:40:27.207Z,82.80
2019-04-11T03:43:03.690Z,82.70
2019-04-11T03:45:48.026Z,83.00
2019-04-11T03:48:29.220Z,82.80
2019-04-11T03:50:57.601Z,82.60
2019-04-11T03:53:38.710Z,82.70
2019-04-11T03:56:21.800Z,82.80
2019-04-11T03:59:01.419Z,82.80
2019-04-11T04:01:39.961Z,83.10
2019-04-11T04:04:28.911Z,83.30
2019-04-11T04:07:16.676Z,83.10
2019-04-11T04:09:56.289Z,82.90
2019-04-11T04:12:37.704Z,83.30
2019-04-11T04:15:51.582Z,83.40
2019-04-11T04:25:16.678Z,83.40
2019-04-11T04:27:56.995Z,83.50
2019-04-11T04:30:40.566Z,83.40
2019-04-11T04:33:22.785Z,83.20
2019-04-11T04:36:06.057Z,83.30
2019-04-11T04:38:46.363Z,83.20
2019-04-11T04:41:36.669Z,83.10
2019-04-11T04:44:08.703Z,83.20
2019-04-11T04:47:00.283Z,83.30
2019-04-11T04:49:32.348Z,83.10
2019-04-11T04:52:14.404Z,82.90
2019-04-11T04:54:55.147Z,82.70
2019-04-11T04:57:37.649Z,82.90
2019-04-11T05:00:16.070Z,82.90
2019-04-11T05:03:02.959Z,82.80
2019-04-11T05:05:44.304Z,82.60
2019-04-11T05:08:24.978Z,82.50
2019-04-11T05:11:05.467Z,82.40
2019-04-11T05:13:48.528Z,82.50
2019-04-11T05:16:27.212Z,82.10
2019-04-11T05:19:08.458Z,82.10
2019-04-11T05:21:48.481Z,81.80
2019-04-11T05:24:28.767Z,81.90
2019-04-11T05:27:08.354Z,81.40
2019-04-11T05:29:49.461Z,81.40
2019-04-11T05:32:29.605Z,80.90
2019-04-11T05:35:11.057Z,80.80
2019-04-11T05:37:51.475Z,80.80
2019-04-11T05:40:32.497Z,80.60
2019-04-11T05:43:13.555Z,80.50
2019-04-11T05:45:55.214Z,79.90
2019-04-11T05:48:50.629Z,79.10
2019-04-11T05:54:12.250Z,77.40
2019-04-11T05:56:59.188Z,76.90
2019-04-11T06:00:00.144Z,76.30
2019-04-11T06:02:43.740Z,75.90
2019-04-11T06:05:50.029Z,75.50
2019-04-11T06:08:31.800Z,74.40
2019-04-11T06:11:20.699Z,74.10
2019-04-11T06:14:17.824Z,72.90
2019-04-11T06:17:01.008Z,72.00
2019-04-11T06:20:00.279Z,71.00
2019-04-11T06:22:45.635Z,69.50
2019-04-11T06:28:09.574Z,69.60
2019-04-11T06:31:12.039Z,68.50
2019-04-11T06:33:56.617Z,67.70
2019-04-11T06:36:56.913Z,67.40
2019-04-11T06:39:47.758Z,67.40
2019-04-11T06:42:45.613Z,66.20
2019-04-11T06:45:46.136Z,66.10
2019-04-11T06:51:30.581Z,64.00
2019-04-11T06:54:30.744Z,62.90
2019-04-11T06:57:14.669Z,63.10
2019-04-11T06:59:54.588Z,62.00
2019-04-11T07:02:37.536Z,61.40
2019-04-11T07:05:18.297Z,60.80
2019-04-11T07:07:58.131Z,59.50
2019-04-11T07:10:42.569Z,59.90
2019-04-11T07:13:30.543Z,59.70
2019-04-11T07:16:11.233Z,59.30
2019-04-11T07:19:11.394Z,58.30
2019-04-11T07:22:32.669Z,56.80
2019-04-11T07:25:31.377Z,56.70
2019-04-11T07:28:22.951Z,57.50
2019-04-11T07:31:44.203Z,55.10
2019-04-11T07:34:43.731Z,54.90
2019-04-11T07:37:44.427Z,54.10
2019-04-11T07:40:44.407Z,53.90
2019-04-11T07:43:27.367Z,53.90
2019-04-11T07:49:34.951Z,53.10
2019-04-11T07:52:15.549Z,52.60
2019-04-11T07:54:56.486Z,52.40
2019-04-11T07:57:42.600Z,52.90
2019-04-11T08:04:03.843Z,51.60
2019-04-11T08:07:04.340Z,50.60
2019-04-11T08:13:03.767Z,50.50
2019-04-11T08:16:04.394Z,49.00
2019-04-11T08:19:03.877Z,48.40
2019-04-11T08:22:03.224Z,48.80
2019-04-11T08:28:02.346Z,47.40
2019-04-11T08:33:20.397Z,47.20
2019-04-11T08:36:20.191Z,46.90
2019-04-11T08:39:01.804Z,45.90
2019-04-11T08:45:04.229Z,44.60
2019-04-11T08:47:53.945Z,44.40
2019-04-11T08:50:54.638Z,43.30
2019-04-11T08:53:44.977Z,43.40
2019-04-11T08:56:47.373Z,41.30
2019-04-11T08:59:46.893Z,42.10
2019-04-11T09:02:46.084Z,42.20
2019-04-11T09:05:35.426Z,41.00
2019-04-11T09:08:46.843Z,39.60
2019-04-11T09:11:47.052Z,39.30
2019-04-11T09:14:46.492Z,40.00
2019-04-11T09:21:20.511Z,39.80
2019-04-11T09:24:01.906Z,38.40
2019-04-11T09:27:02.421Z,37.70
2019-04-11T09:29:46.273Z,37.90
2019-04-11T09:32:46.514Z,36.80
2019-04-11T09:35:29.097Z,35.70
2019-04-11T09:38:10.456Z,35.40
2019-04-11T09:41:00.569Z,34.90
2019-04-11T09:43:40.589Z,34.80
2019-04-11T09:46:34.459Z,36.20
2019-04-11T09:49:31.308Z,35.60
2019-04-11T09:52:16.771Z,34.40
2019-04-11T09:58:33.714Z,34.20
2019-04-11T10:01:33.078Z,34.90
2019-04-11T10:04:13.208Z,35.50
2019-04-11T10:07:13.214Z,33.20
2019-04-11T10:10:12.857Z,32.80
2019-04-11T10:19:20.047Z,32.90
2019-04-11T10:22:20.610Z,33.10
2019-04-11T10:25:31.675Z,31.40
2019-04-11T10:28:31.496Z,32.10
2019-04-11T10:31:18.106Z,31.90
2019-04-11T10:34:31.553Z,31.40
2019-04-11T10:37:14.239Z,29.60
2019-04-11T10:40:03.925Z,30.30
2019-04-11T10:43:04.461Z,30.70
2019-04-11T10:45:57.065Z,31.10
2019-04-11T10:48:50.021Z,32.40
2019-04-11T10:51:56.482Z,31.70
2019-04-11T10:54:36.775Z,30.50
2019-04-11T10:57:36.249Z,30.80
2019-04-11T11:00:35.605Z,30.20
2019-04-11T11:03:47.382Z,30.00
2019-04-11T11:06:29.558Z,30.80
2019-04-11T11:09:28.739Z,28.70
2019-04-11T11:15:31.545Z,29.10
2019-04-11T11:18:48.163Z,30.10
2019-04-11T11:21:17.634Z,28.90
2019-04-11T11:24:17.729Z,28.80
2019-04-11T11:26:58.325Z,30.10
2019-04-11T11:30:06.094Z,29.40
2019-04-11T11:32:47.414Z,30.30
2019-04-11T11:35:54.059Z,28.20
2019-04-11T11:42:33.114Z,30.40
2019-04-11T11:45:35.418Z,29.20
2019-04-11T11:52:11.297Z,28.80
2019-04-11T11:54:56.352Z,27.70
2019-04-11T11:57:55.863Z,28.40
2019-04-11T12:00:36.742Z,28.90
2019-04-11T12:03:35.829Z,28.50
2019-04-11T12:06:20.775Z,29.00
2019-04-11T12:09:18.378Z,28.20
2019-04-11T12:12:04.348Z,27.10
2019-04-11T12:15:03.476Z,26.00
2019-04-11T12:18:24.797Z,27.10
2019-04-11T12:21:07.181Z,26.30
2019-04-11T12:24:09.741Z,27.70
2019-04-11T12:27:22.599Z,26.50
2019-04-11T12:30:25.807Z,27.60
2019-04-11T12:33:25.690Z,26.50
2019-04-11T12:36:08.013Z,27.90
2019-04-11T12:39:07.040Z,27.40
2019-04-11T12:41:52.400Z,27.50
2019-04-11T12:44:41.350Z,25.90
2019-04-11T12:47:25.708Z,27.40
2019-04-11T12:50:28.476Z,25.70
2019-04-11T12:53:16.157Z,26.70
2019-04-11T12:55:56.292Z,26.90
2019-04-11T12:58:47.772Z,27.50
2019-04-11T13:01:47.350Z,27.00
2019-04-11T13:04:46.443Z,26.90
2019-04-11T13:10:40.739Z,26.90
2019-04-11T13:16:30.362Z,26.60
2019-04-11T13:19:30.057Z,27.70
2019-04-11T13:22:15.817Z,26.50
2019-04-11T13:25:14.892Z,27.30
2019-04-11T13:27:56.565Z,28.00
2019-04-11T13:30:57.710Z,26.40
2019-04-11T13:33:38.082Z,26.00
2019-04-11T13:36:37.074Z,25.80
2019-04-11T13:39:16.731Z,26.40
2019-04-11T13:42:16.278Z,28.20
2019-04-11T13:44:55.788Z,29.20
2019-04-11T13:48:02.016Z,29.20
2019-04-11T13:50:41.785Z,30.60
2019-04-11T13:53:43.914Z,30.70
2019-04-11T13:59:56.658Z,29.90
2019-04-11T14:02:52.245Z,30.70
2019-04-11T14:05:30.755Z,29.60
2019-04-11T14:11:29.159Z,27.30
2019-04-11T14:14:29.743Z,27.10
2019-04-11T14:17:34.740Z,28.00
2019-04-11T14:20:34.233Z,30.20
2019-04-11T14:23:15.313Z,29.00
2019-04-11T14:26:00.332Z,29.50
2019-04-11T14:28:59.684Z,27.90
2019-04-11T14:31:47.600Z,28.00
2019-04-11T14:34:52.931Z,28.60
2019-04-11T14:37:39.476Z,30.10
2019-04-11T14:40:41.565Z,30.60
2019-04-11T14:43:25.476Z,29.70
2019-04-11T14:46:25.233Z,30.90
2019-04-11T14:49:05.863Z,30.40
2019-04-11T14:52:03.625Z,32.20
2019-04-11T14:58:11.896Z,32.90
2019-04-11T15:00:53.788Z,32.40
2019-04-11T15:03:44.976Z,32.40
2019-04-11T15:12:52.382Z,31.70
2019-04-11T15:19:02.952Z,33.80
2019-04-11T15:22:04.049Z,33.20
2019-04-11T15:24:46.532Z,34.30
2019-04-11T15:27:49.745Z,34.40
2019-04-11T15:30:30.818Z,34.00
2019-04-11T15:33:29.909Z,34.10
2019-04-11T15:36:11.128Z,33.40
2019-04-11T15:39:10.599Z,32.60
2019-04-11T15:41:53.728Z,32.70
2019-04-11T15:44:51.737Z,33.10
2019-04-11T15:47:31.381Z,33.00
2019-04-11T15:50:31.282Z,33.30
2019-04-11T15:53:14.520Z,34.60
2019-04-11T15:56:13.771Z,34.40
2019-04-11T15:58:59.236Z,34.40
2019-04-11T16:02:00.936Z,34.40
2019-04-11T16:04:54.059Z,34.30
2019-04-11T16:07:56.250Z,34.50
2019-04-11T16:10:41.835Z,36.70
2019-04-11T16:13:31.817Z,36.50
2019-04-11T16:16:14.837Z,36.50
2019-04-11T16:19:16.909Z,36.50
2019-04-11T16:22:19.766Z,37.50
2019-04-11T16:25:02.018Z,37.80
2019-04-11T16:28:02.011Z,38.00
2019-04-11T16:34:03.284Z,38.10
2019-04-11T16:36:51.593Z,39.60
2019-04-11T16:39:57.747Z,39.80
2019-04-11T16:46:27.404Z,40.10
2019-04-11T16:49:06.841Z,39.90
2019-04-11T16:51:46.925Z,40.70
2019-04-11T16:54:27.387Z,41.00
2019-04-11T16:57:07.277Z,40.80
2019-04-11T16:59:49.578Z,41.70
2019-04-11T17:02:31.825Z,42.10
2019-04-11T17:05:12.577Z,42.90
2019-04-11T17:07:59.217Z,44.30
2019-04-11T17:10:58.376Z,45.00
2019-04-11T17:13:45.159Z,45.10
2019-04-11T17:16:29.954Z,44.90
2019-04-11T17:19:06.880Z,45.20
2019-04-11T17:21:48.949Z,46.40
2019-04-11T17:24:29.230Z,47.40
2019-04-11T17:27:10.729Z,48.30
2019-04-11T17:29:54.573Z,48.30
2019-04-11T17:32:36.205Z,49.00
2019-04-11T17:35:15.864Z,49.00
2019-04-11T17:37:55.973Z,49.20
2019-04-11T17:40:39.383Z,49.70
2019-04-11T17:43:18.081Z,49.40
2019-04-11T17:48:42.106Z,50.20
2019-04-11T17:51:24.185Z,50.10
2019-04-11T17:54:04.461Z,50.90
2019-04-11T17:56:44.385Z,51.80
2019-04-11T17:59:27.991Z,51.10
2019-04-11T18:02:10.350Z,51.50
2019-04-11T18:04:50.141Z,51.60
2019-04-11T18:07:30.896Z,51.40
2019-04-11T18:10:10.286Z,51.80
2019-04-11T18:15:36.828Z,52.00
2019-04-11T18:18:16.630Z,52.40
2019-04-11T18:20:56.721Z,52.30
2019-04-11T18:23:43.569Z,52.50
2019-04-11T18:26:23.156Z,52.10
2019-04-11T18:29:03.336Z,52.50
2019-04-11T18:31:43.104Z,52.80
2019-04-11T18:34:23.728Z,53.10
2019-04-11T18:37:04.280Z,53.00
2019-04-11T18:39:44.685Z,53.00
2019-04-11T18:42:24.754Z,53.90
2019-04-11T18:45:04.389Z,54.20
2019-04-11T18:50:40.571Z,54.50
2019-04-11T18:53:20.619Z,54.50
2019-04-11T18:56:01.767Z,54.20
2019-04-11T18:58:41.823Z,54.60
2019-04-11T19:01:21.852Z,54.80
2019-04-11T19:04:02.219Z,54.40
2019-04-11T19:06:43.013Z,55.50
2019-04-11T19:09:23.710Z,55.90
2019-04-11T19:12:05.452Z,55.40
2019-04-11T19:14:46.102Z,55.40
2019-04-11T19:20:18.681Z,55.90
2019-04-11T19:22:58.968Z,56.60
2019-04-11T19:25:44.063Z,56.60
2019-04-11T19:28:24.891Z,57.00
2019-04-11T19:31:03.828Z,57.40
2019-04-11T19:33:43.687Z,57.30
2019-04-11T19:36:23.956Z,57.60
2019-04-11T19:39:04.923Z,57.50
2019-04-11T19:41:47.852Z,57.70
2019-04-11T19:44:27.806Z,57.50
2019-04-11T19:47:07.691Z,58.20
2019-04-11T19:49:47.773Z,58.00
2019-04-11T19:52:29.863Z,59.20
2019-04-11T19:55:29.742Z,59.20
2019-04-11T19:58:09.125Z,59.00
2019-04-11T20:00:53.066Z,59.60
2019-04-11T20:03:31.632Z,59.80
2019-04-11T20:06:17.961Z,60.00
2019-04-11T20:09:04.797Z,59.80
2019-04-11T20:11:46.564Z,59.80
2019-04-11T20:14:27.059Z,59.80
2019-04-11T20:17:09.211Z,60.40
2019-04-11T20:20:00.625Z,60.20
2019-04-11T20:22:31.128Z,59.90
2019-04-11T20:25:11.426Z,59.70
2019-04-11T20:27:51.377Z,61.00
2019-04-11T20:30:31.806Z,61.00
2019-04-11T20:33:11.260Z,60.80
2019-04-11T20:35:50.957Z,60.80
2019-04-11T20:38:30.815Z,61.10
2019-04-11T20:41:14.325Z,61.70
2019-04-11T20:43:57.003Z,61.10
2019-04-11T20:46:36.235Z,61.40
2019-04-11T20:49:16.172Z,61.60
2019-04-11T20:51:56.498Z,62.00
2019-04-11T20:54:38.518Z,61.70
2019-04-11T20:57:25.700Z,61.50
2019-04-11T21:00:00.617Z,61.80
2019-04-11T21:02:41.088Z,62.60
2019-04-11T21:05:21.089Z,62.50
2019-04-11T21:08:02.987Z,62.10
2019-04-11T21:10:43.389Z,62.70
2019-04-11T21:13:23.648Z,62.20
2019-04-11T21:16:03.794Z,62.40
2019-04-11T21:18:44.487Z,62.80
2019-04-11T21:21:25.168Z,63.20
2019-04-11T21:24:05.439Z,63.00
2019-04-11T21:26:45.674Z,63.80
2019-04-11T21:29:25.723Z,64.20
2019-04-11T21:32:05.682Z,64.20
2019-04-11T21:34:47.643Z,64.20
2019-04-11T21:37:30.172Z,64.70
2019-04-11T21:40:09.703Z,64.50
2019-04-11T21:42:50.136Z,64.60
2019-04-11T21:45:29.708Z,65.30
2019-04-11T21:48:10.086Z,65.20
2019-04-11T21:50:49.914Z,65.30
2019-04-11T21:53:36.537Z,65.50
2019-04-11T21:56:10.044Z,65.60
2019-04-11T21:58:56.809Z,65.70
2019-04-11T22:01:36.478Z,65.80
2019-04-11T22:04:16.439Z,65.90
2019-04-11T22:07:00.730Z,66.10
2019-04-11T22:09:38.678Z,65.80
2019-04-11T22:12:18.868Z,66.40
2019-04-11T22:14:58.765Z,66.70
2019-04-11T22:17:38.670Z,67.30
2019-04-11T22:20:18.449Z,67.30
2019-04-11T22:22:58.470Z,67.50
2019-04-11T22:25:38.911Z,67.70
2019-04-11T22:28:19.360Z,67.70
2019-04-11T22:30:58.936Z,67.90
2019-04-11T22:34:01.190Z,68.20
2019-04-11T22:36:41.917Z,68.10
2019-04-11T22:39:22.815Z,68.10
2019-04-11T22:44:42.542Z,68.70
2019-04-11T22:47:24.507Z,68.70
2019-04-11T22:50:04.475Z,68.60
2019-04-11T22:52:44.702Z,68.70
2019-04-11T22:55:24.610Z,68.90
2019-04-11T22:58:04.678Z,69.20
2019-04-11T23:00:45.829Z,69.00
2019-04-11T23:03:32.630Z,69.00
2019-04-11T23:06:14.913Z,69.00
2019-04-11T23:08:54.767Z,69.70
2019-04-11T23:11:35.025Z,69.70
2019-04-11T23:14:15.967Z,69.90
2019-04-11T23:16:56.871Z,69.90
2019-04-11T23:19:36.860Z,70.50
2019-04-11T23:22:17.266Z,70.70
2019-04-11T23:24:57.421Z,71.00
2019-04-11T23:27:37.415Z,71.10
2019-04-11T23:30:18.420Z,70.90
2019-04-11T23:32:58.814Z,71.20
2019-04-11T23:35:38.558Z,71.30
2019-04-11T23:38:18.069Z,71.40
2019-04-11T23:40:58.224Z,71.60
2019-04-11T23:43:38.462Z,71.40
2019-04-11T23:46:19.015Z,71.30
2019-04-11T23:49:00.298Z,71.60
2019-04-11T23:51:40.383Z,71.80
2019-04-11T23:54:23.209Z,71.80
2019-04-11T23:57:02.756Z,71.80
2019-04-11T23:59:31.988Z,72.20
